createdAt,value
2019-04-14T00:01:56.597Z,94.70
2019-04-14T00:04:34.138Z,94.20
2019-04-14T00:07:03.817Z,94.10
2019-04-14T00:09:40.416Z,94.10
2019-04-14T00:12:16.682Z,94.00
2019-04-14T00:14:53.431Z,94.20
2019-04-14T00:17:30.578Z,94.00
2019-04-14T00:20:07.380Z,93.80
2019-04-14T00:22:38.111Z,93.60
2019-04-14T00:25:17.307Z,93.30
2019-04-14T00:27:54.378Z,93.20
2019-04-14T00:30:25.170Z,93.10
2019-04-14T00:33:04.054Z,92.80
2019-04-14T00:35:48.017Z,92.70
2019-04-14T00:38:26.055Z,92.70
2019-04-14T00:41:07.187Z,92.60
2019-04-14T00:43:48.404Z,92.50
2019-04-14T00:47:02.914Z,92.30
2019-04-14T00:49:39.700Z,92.10
2019-04-14T00:52:10.023Z,92.00
2019-04-14T00:54:46.344Z,92.00
2019-04-14T00:57:22.986Z,92.00
2019-04-14T00:59:59.509Z,91.80
2019-04-14T01:02:36.458Z,91.80
2019-04-14T01:05:07.412Z,91.90
2019-04-14T01:07:43.755Z,91.80
2019-04-14T01:10:21.315Z,91.60
2019-04-14T01:12:58.163Z,91.50
2019-04-14T01:15:28.924Z,91.40
2019-04-14T01:18:05.707Z,91.30
2019-04-14T01:20:55.743Z,91.10
2019-04-14T01:23:26.117Z,91.00
2019-04-14T01:26:03.295Z,91.10
2019-04-14T01:28:33.039Z,91.10
2019-04-14T01:31:09.861Z,91.20
2019-04-14T01:33:46.880Z,91.30
2019-04-14T01:36:17.045Z,91.20
2019-04-14T01:38:53.613Z,91.20
2019-04-14T01:41:43.426Z,91.20
2019-04-14T01:44:13.498Z,91.50
2019-04-14T01:46:49.872Z,91.60
2019-04-14T01:49:26.882Z,91.60
2019-04-14T01:52:14.372Z,91.70
2019-04-14T01:54:51.590Z,91.80
2019-04-14T01:57:32.924Z,91.50
2019-04-14T02:00:20.753Z,91.40
2019-04-14T02:02:57.660Z,91.40
2019-04-14T02:05:34.297Z,91.40
2019-04-14T02:08:04.469Z,91.30
2019-04-14T02:10:41.263Z,91.20
2019-04-14T02:13:18.178Z,91.10
2019-04-14T02:15:48.552Z,91.10
2019-04-14T02:18:25.107Z,91.20
2019-04-14T02:20:55.742Z,91.20
2019-04-14T02:23:32.329Z,91.20
2019-04-14T02:26:02.256Z,91.00
2019-04-14T02:28:39.570Z,91.10
2019-04-14T02:31:25.131Z,91.00
2019-04-14T02:34:17.479Z,90.60
2019-04-14T02:39:31.157Z,90.50
2019-04-14T02:44:44.187Z,90.60
2019-04-14T02:50:08.797Z,90.50
2019-04-14T02:53:01.579Z,90.20
2019-04-14T02:55:10.830Z,90.30
2019-04-14T02:57:52.913Z,90.10
2019-04-14T03:00:31.676Z,90.10
2019-04-14T03:03:05.913Z,90.10
2019-04-14T03:05:36.667Z,90.30
2019-04-14T03:08:18.848Z,90.40
2019-04-14T03:10:39.875Z,90.10
2019-04-14T03:21:30.643Z,90.30
2019-04-14T03:24:04.935Z,90.20
2019-04-14T03:26:56.237Z,90.30
2019-04-14T03:29:28.831Z,90.30
2019-04-14T03:32:32.392Z,90.30
2019-04-14T03:34:43.416Z,90.30
2019-04-14T03:39:47.998Z,90.00
2019-04-14T03:42:31.334Z,90.10
2019-04-14T03:45:04.159Z,90.20
2019-04-14T03:48:16.991Z,90.30
2019-04-14T03:50:21.064Z,90.20
2019-04-14T03:53:03.284Z,89.80
2019-04-14T03:55:22.683Z,89.50
2019-04-14T03:57:37.654Z,89.80
2019-04-14T04:00:14.550Z,90.00
2019-04-14T04:02:44.455Z,89.80
2019-04-14T04:05:21.614Z,89.80
2019-04-14T04:07:58.083Z,89.50
2019-04-14T04:10:35.671Z,89.60
2019-04-14T04:13:12.756Z,89.30
2019-04-14T04:15:49.828Z,89.60
2019-04-14T04:18:27.085Z,89.50
2019-04-14T04:21:00.988Z,89.60
2019-04-14T04:23:42.458Z,89.60
2019-04-14T04:26:16.939Z,89.30
2019-04-14T04:29:00.537Z,89.70
2019-04-14T04:31:43.942Z,89.70
2019-04-14T04:34:33.836Z,89.70
2019-04-14T04:37:10.695Z,90.00
2019-04-14T04:39:54.125Z,90.30
2019-04-14T04:42:30.867Z,90.00
2019-04-14T04:45:14.825Z,90.00
2019-04-14T04:47:57.732Z,90.00
2019-04-14T04:50:28.255Z,90.00
2019-04-14T04:53:04.861Z,90.00
2019-04-14T04:55:35.152Z,90.00
2019-04-14T04:58:05.658Z,89.70
2019-04-14T05:00:41.675Z,89.70
2019-04-14T05:03:18.915Z,89.90
2019-04-14T05:06:41.645Z,89.80
2019-04-14T05:09:29.576Z,90.00
2019-04-14T05:12:15.786Z,89.50
2019-04-14T05:15:03.558Z,89.10
2019-04-14T05:17:38.792Z,89.40
2019-04-14T05:20:22.459Z,89.30
2019-04-14T05:22:51.329Z,89.70
2019-04-14T05:25:27.573Z,89.00
2019-04-14T05:27:57.998Z,89.30
2019-04-14T05:30:28.568Z,89.40
2019-04-14T05:33:05.263Z,88.50
2019-04-14T05:35:35.839Z,88.40
2019-04-14T05:38:12.662Z,88.40
2019-04-14T05:40:42.882Z,88.60
2019-04-14T05:43:30.431Z,88.30
2019-04-14T05:45:59.142Z,88.50
2019-04-14T05:48:42.433Z,88.30
2019-04-14T05:51:13.074Z,88.30
2019-04-14T05:53:50.079Z,87.80
2019-04-14T05:56:20.696Z,87.80
2019-04-14T05:58:58.006Z,87.50
2019-04-14T06:01:29.339Z,87.50
2019-04-14T06:04:05.500Z,87.20
2019-04-14T06:06:35.003Z,86.90
2019-04-14T06:09:13.519Z,86.40
2019-04-14T06:11:42.981Z,86.40
2019-04-14T06:14:14.113Z,86.00
2019-04-14T06:16:50.449Z,86.00
2019-04-14T06:19:19.909Z,85.30
2019-04-14T06:22:02.589Z,85.50
2019-04-14T06:24:32.186Z,84.70
2019-04-14T06:27:01.637Z,84.60
2019-04-14T06:29:37.328Z,84.80
2019-04-14T06:32:23.567Z,84.70
2019-04-14T06:35:01.131Z,83.50
2019-04-14T06:37:44.447Z,82.40
2019-04-14T06:40:21.081Z,81.50
2019-04-14T06:42:50.538Z,81.30
2019-04-14T06:45:26.752Z,80.20
2019-04-14T06:48:02.939Z,78.70
2019-04-14T06:50:39.276Z,78.80
2019-04-14T06:53:08.813Z,78.30
2019-04-14T06:55:45.397Z,77.90
2019-04-14T06:58:21.811Z,77.00
2019-04-14T07:00:51.405Z,76.60
2019-04-14T07:03:28.090Z,75.60
2019-04-14T07:06:04.786Z,75.00
2019-04-14T07:08:34.255Z,75.40
2019-04-14T07:11:10.850Z,73.50
2019-04-14T07:13:40.389Z,72.60
2019-04-14T07:16:23.389Z,71.90
2019-04-14T07:18:52.935Z,70.90
2019-04-14T07:21:29.548Z,70.50
2019-04-14T07:23:59.077Z,69.40
2019-04-14T07:26:35.566Z,68.40
2019-04-14T07:29:05.237Z,66.90
2019-04-14T07:31:58.539Z,65.60
2019-04-14T07:34:29.701Z,66.40
2019-04-14T07:37:13.276Z,65.50
2019-04-14T07:39:44.439Z,64.80
2019-04-14T07:42:25.154Z,63.70
2019-04-14T07:45:14.304Z,63.00
2019-04-14T07:48:07.008Z,63.20
2019-04-14T07:51:32.002Z,62.60
2019-04-14T07:54:05.677Z,61.10
2019-04-14T07:56:59.290Z,60.90
2019-04-14T07:59:36.934Z,60.60
2019-04-14T08:02:08.145Z,60.40
2019-04-14T08:04:39.370Z,60.00
2019-04-14T08:07:15.570Z,58.40
2019-04-14T08:09:45.121Z,58.90
2019-04-14T08:12:21.196Z,57.50
2019-04-14T08:14:52.408Z,58.30
2019-04-14T08:17:28.416Z,58.10
2019-04-14T08:19:58.028Z,58.50
2019-04-14T08:22:40.432Z,57.90
2019-04-14T08:25:10.037Z,56.60
2019-04-14T08:27:46.138Z,55.90
2019-04-14T08:30:16.314Z,56.10
2019-04-14T08:32:52.278Z,57.10
2019-04-14T08:35:21.831Z,56.40
2019-04-14T08:37:58.474Z,55.50
2019-04-14T08:40:35.176Z,56.60
2019-04-14T08:43:24.421Z,56.20
2019-04-14T08:46:13.982Z,56.60
2019-04-14T08:48:47.790Z,53.70
2019-04-14T08:51:31.476Z,53.70
2019-04-14T08:54:15.828Z,53.30
2019-04-14T08:56:47.108Z,52.60
2019-04-14T08:59:24.701Z,51.30
2019-04-14T09:02:04.619Z,52.60
2019-04-14T09:04:50.278Z,52.70
2019-04-14T09:07:33.720Z,51.20
2019-04-14T09:10:10.993Z,53.20
2019-04-14T09:12:49.382Z,52.80
2019-04-14T09:15:19.075Z,50.90
2019-04-14T09:17:54.907Z,51.30
2019-04-14T09:20:24.519Z,50.90
2019-04-14T09:23:06.957Z,50.90
2019-04-14T09:25:36.612Z,52.20
2019-04-14T09:28:13.237Z,50.70
2019-04-14T09:30:42.916Z,51.30
2019-04-14T09:33:18.765Z,51.70
2019-04-14T09:35:48.256Z,51.60
2019-04-14T09:38:17.798Z,51.20
2019-04-14T09:40:54.331Z,51.40
2019-04-14T09:43:30.533Z,50.00
2019-04-14T09:46:00.048Z,50.10
2019-04-14T09:48:35.710Z,50.70
2019-04-14T09:51:05.424Z,49.10
2019-04-14T09:53:48.521Z,48.30
2019-04-14T09:56:31.317Z,49.20
2019-04-14T09:59:00.933Z,48.10
2019-04-14T10:01:37.793Z,46.60
2019-04-14T10:04:07.407Z,46.10
2019-04-14T10:06:43.726Z,46.60
2019-04-14T10:09:13.640Z,47.20
2019-04-14T10:11:53.696Z,46.80
2019-04-14T10:14:21.418Z,46.10
2019-04-14T10:16:57.870Z,46.10
2019-04-14T10:19:27.405Z,46.30
2019-04-14T10:22:03.645Z,47.60
2019-04-14T10:24:36.329Z,46.80
2019-04-14T10:27:18.764Z,46.70
2019-04-14T10:29:48.241Z,45.60
2019-04-14T10:32:17.945Z,46.40
2019-04-14T10:34:54.214Z,45.10
2019-04-14T10:37:23.686Z,45.30
2019-04-14T10:39:59.933Z,46.40
2019-04-14T10:42:29.542Z,46.10
2019-04-14T10:45:05.353Z,46.40
2019-04-14T10:47:35.148Z,45.60
2019-04-14T10:50:12.578Z,44.80
2019-04-14T10:52:42.120Z,46.80
2019-04-14T10:55:25.224Z,46.70
2019-04-14T10:57:54.853Z,48.20
2019-04-14T11:00:30.771Z,45.60
2019-04-14T11:03:07.245Z,45.80
2019-04-14T11:05:50.502Z,45.10
2019-04-14T11:08:26.943Z,45.30
2019-04-14T11:10:56.566Z,46.50
2019-04-14T11:13:33.060Z,47.30
2019-04-14T11:16:09.643Z,46.90
2019-04-14T11:18:45.626Z,46.70
2019-04-14T11:21:22.213Z,44.80
2019-04-14T11:23:51.788Z,45.50
2019-04-14T11:26:28.055Z,46.40
2019-04-14T11:28:57.530Z,45.10
2019-04-14T11:31:52.966Z,43.90
2019-04-14T11:34:33.150Z,43.70
2019-04-14T11:37:10.921Z,44.80
2019-04-14T11:39:40.818Z,45.30
2019-04-14T11:42:10.506Z,44.70
2019-04-14T11:44:46.661Z,45.30
2019-04-14T11:47:16.492Z,45.50
2019-04-14T11:49:45.995Z,44.40
2019-04-14T11:52:29.138Z,45.30
2019-04-14T11:55:04.819Z,45.70
2019-04-14T11:57:41.375Z,45.50
2019-04-14T12:00:38.066Z,47.30
2019-04-14T12:03:15.055Z,46.60
2019-04-14T12:05:53.235Z,47.60
2019-04-14T12:08:24.501Z,50.60
2019-04-14T12:11:00.956Z,51.20
2019-04-14T12:13:30.444Z,51.70
2019-04-14T12:16:06.639Z,49.70
2019-04-14T12:18:36.184Z,50.00
2019-04-14T12:21:12.495Z,50.00
2019-04-14T12:23:54.884Z,50.60
2019-04-14T12:26:24.415Z,51.20
2019-04-14T12:29:01.994Z,49.70
2019-04-14T12:31:44.392Z,49.50
2019-04-14T12:34:20.264Z,50.10
2019-04-14T12:36:49.793Z,50.20
2019-04-14T12:39:31.414Z,50.00
2019-04-14T12:42:24.602Z,51.20
2019-04-14T12:44:58.386Z,49.80
2019-04-14T12:47:40.124Z,50.80
2019-04-14T12:50:12.576Z,50.80
2019-04-14T12:52:48.995Z,51.40
2019-04-14T12:55:18.649Z,51.10
2019-04-14T12:58:06.119Z,51.90
2019-04-14T13:00:51.055Z,51.60
2019-04-14T13:03:21.063Z,50.30
2019-04-14T13:05:57.018Z,51.70
2019-04-14T13:08:33.127Z,51.40
2019-04-14T13:11:02.797Z,51.10
2019-04-14T13:13:39.437Z,51.90
2019-04-14T13:16:09.073Z,51.90
2019-04-14T13:19:02.361Z,51.30
2019-04-14T13:21:32.232Z,51.40
2019-04-14T13:24:05.192Z,51.10
2019-04-14T13:26:41.819Z,51.60
2019-04-14T13:29:19.684Z,52.00
2019-04-14T13:31:57.592Z,52.30
2019-04-14T13:34:30.475Z,51.00
2019-04-14T13:37:09.995Z,50.90
2019-04-14T13:39:39.852Z,51.60
2019-04-14T13:42:16.654Z,52.30
2019-04-14T13:44:52.913Z,53.50
2019-04-14T13:47:23.188Z,53.40
2019-04-14T13:49:59.719Z,53.70
2019-04-14T13:52:30.938Z,53.00
2019-04-14T13:55:07.732Z,53.20
2019-04-14T13:57:50.283Z,54.30
2019-04-14T14:00:20.719Z,54.20
2019-04-14T14:02:57.351Z,54.30
2019-04-14T14:05:33.082Z,54.20
2019-04-14T14:08:09.829Z,54.00
2019-04-14T14:10:39.422Z,54.70
2019-04-14T14:13:17.234Z,54.60
2019-04-14T14:16:04.323Z,54.40
2019-04-14T14:18:48.600Z,54.70
2019-04-14T14:21:34.868Z,55.20
2019-04-14T14:24:28.959Z,55.40
2019-04-14T14:27:03.016Z,54.90
2019-04-14T14:29:39.299Z,55.20
2019-04-14T14:32:10.391Z,55.10
2019-04-14T14:34:46.068Z,55.50
2019-04-14T14:37:15.598Z,55.70
2019-04-14T14:39:52.134Z,56.40
2019-04-14T14:42:21.622Z,57.00
2019-04-14T14:45:04.908Z,57.40
2019-04-14T14:47:41.589Z,57.00
2019-04-14T14:50:19.338Z,56.40
2019-04-14T14:52:55.645Z,56.80
2019-04-14T14:55:38.406Z,56.60
2019-04-14T14:58:21.189Z,57.10
2019-04-14T15:00:57.898Z,56.50
2019-04-14T15:03:27.529Z,57.20
2019-04-14T15:06:03.738Z,56.60
2019-04-14T15:08:33.339Z,56.90
2019-04-14T15:11:04.318Z,56.80
2019-04-14T15:13:40.933Z,57.20
2019-04-14T15:16:10.619Z,57.40
2019-04-14T15:18:47.254Z,57.90
2019-04-14T15:21:16.865Z,58.50
2019-04-14T15:23:52.739Z,59.20
2019-04-14T15:26:22.336Z,58.70
2019-04-14T15:28:58.004Z,58.20
2019-04-14T15:31:27.596Z,57.40
2019-04-14T15:34:03.863Z,57.60
2019-04-14T15:36:33.411Z,58.80
2019-04-14T15:39:11.105Z,59.00
2019-04-14T15:41:40.837Z,59.40
2019-04-14T15:44:17.099Z,59.90
2019-04-14T15:46:46.635Z,60.50
2019-04-14T15:49:22.757Z,60.70
2019-04-14T15:51:59.360Z,61.20
2019-04-14T15:54:35.893Z,61.70
2019-04-14T15:57:32.899Z,61.10
2019-04-14T16:00:20.777Z,61.10
2019-04-14T16:03:01.734Z,61.70
2019-04-14T16:05:39.251Z,62.00
2019-04-14T16:08:10.547Z,61.80
2019-04-14T16:10:54.246Z,62.30
2019-04-14T16:13:34.240Z,62.60
2019-04-14T16:16:14.309Z,63.70
2019-04-14T16:18:54.938Z,64.20
2019-04-14T16:21:24.543Z,64.40
2019-04-14T16:24:00.566Z,64.70
2019-04-14T16:26:31.810Z,64.70
2019-04-14T16:29:24.951Z,64.90
2019-04-14T16:32:05.721Z,65.20
2019-04-14T16:34:43.294Z,66.00
2019-04-14T16:37:19.869Z,66.90
2019-04-14T16:39:49.331Z,66.50
2019-04-14T16:42:25.814Z,67.30
2019-04-14T16:44:55.495Z,67.60
2019-04-14T16:47:31.677Z,67.40
2019-04-14T16:50:01.203Z,67.10
2019-04-14T16:52:47.625Z,67.60
2019-04-14T16:55:34.592Z,68.10
2019-04-14T16:58:15.380Z,68.20
2019-04-14T17:00:59.640Z,67.90
2019-04-14T17:03:29.158Z,68.50
2019-04-14T17:06:05.627Z,69.00
2019-04-14T17:08:35.299Z,69.40
2019-04-14T17:11:12.257Z,70.20
2019-04-14T17:13:43.506Z,71.00
2019-04-14T17:16:33.326Z,71.90
2019-04-14T17:19:19.339Z,71.90
2019-04-14T17:21:57.093Z,72.90
2019-04-14T17:24:37.272Z,72.80
2019-04-14T17:27:21.952Z,74.50
2019-04-14T17:29:59.035Z,75.80
2019-04-14T17:32:40.059Z,76.50
2019-04-14T17:35:11.370Z,77.20
2019-04-14T17:37:42.537Z,77.50
2019-04-14T17:40:20.826Z,78.50
2019-04-14T17:42:52.092Z,79.30
2019-04-14T17:45:50.606Z,79.70
2019-04-14T17:48:20.833Z,80.00
2019-04-14T17:51:07.009Z,80.40
2019-04-14T17:53:38.319Z,80.80
2019-04-14T17:56:18.600Z,81.10
2019-04-14T17:59:08.300Z,81.90
2019-04-14T18:01:51.959Z,83.00
2019-04-14T18:04:39.131Z,84.00
2019-04-14T18:07:19.273Z,84.90
2019-04-14T18:10:08.679Z,85.10
2019-04-14T18:12:39.785Z,85.80
2019-04-14T18:15:23.639Z,85.40
2019-04-14T18:18:17.247Z,85.90
2019-04-14T18:20:55.117Z,86.30
2019-04-14T18:23:31.316Z,87.30
2019-04-14T18:26:08.180Z,87.40
2019-04-14T18:28:39.501Z,87.50
2019-04-14T18:31:28.797Z,87.70
2019-04-14T18:34:21.461Z,87.30
2019-04-14T18:37:00.205Z,87.70
2019-04-14T18:39:53.385Z,88.30
2019-04-14T18:42:30.682Z,88.40
2019-04-14T18:45:02.227Z,88.80
2019-04-14T18:47:42.535Z,89.10
2019-04-14T18:50:26.527Z,89.30
2019-04-14T18:53:10.620Z,89.70
2019-04-14T18:55:51.608Z,90.00
2019-04-14T18:58:45.689Z,90.20
2019-04-14T19:01:23.018Z,90.40
2019-04-14T19:04:07.184Z,90.50
2019-04-14T19:06:36.729Z,90.50
2019-04-14T19:09:20.058Z,90.50
2019-04-14T19:11:57.178Z,90.90
2019-04-14T19:14:35.138Z,91.10
2019-04-14T19:17:09.276Z,91.30
2019-04-14T19:19:46.591Z,91.60
2019-04-14T19:22:29.455Z,91.50
2019-04-14T19:25:08.408Z,91.50
2019-04-14T19:27:44.622Z,91.80
2019-04-14T19:30:21.146Z,92.00
2019-04-14T19:32:50.764Z,91.90
2019-04-14T19:35:33.752Z,91.90
2019-04-14T19:38:09.432Z,92.10
2019-04-14T19:40:45.150Z,92.00
2019-04-14T19:43:23.909Z,92.20
2019-04-14T19:45:53.040Z,92.30
2019-04-14T19:48:22.650Z,92.50
2019-04-14T19:50:58.403Z,92.40
2019-04-14T19:53:34.495Z,92.30
2019-04-14T19:56:10.209Z,92.60
2019-04-14T19:58:46.238Z,92.60
2019-04-14T20:01:15.841Z,92.70
2019-04-14T20:03:51.640Z,92.80
2019-04-14T20:06:21.174Z,93.00
2019-04-14T20:08:58.844Z,92.80
2019-04-14T20:11:28.493Z,93.00
2019-04-14T20:14:04.703Z,93.20
2019-04-14T20:16:38.759Z,93.00
2019-04-14T20:19:38.014Z,93.00
2019-04-14T20:22:12.113Z,92.90
2019-04-14T20:24:55.654Z,92.70
2019-04-14T20:27:38.387Z,93.00
2019-04-14T20:30:22.500Z,93.10
2019-04-14T20:32:52.113Z,93.30
2019-04-14T20:35:21.644Z,93.50
2019-04-14T20:37:58.243Z,93.60
2019-04-14T20:40:34.773Z,93.70
2019-04-14T20:43:17.695Z,93.80
2019-04-14T20:45:47.299Z,93.90
2019-04-14T20:48:23.097Z,94.10
2019-04-14T20:50:52.621Z,94.60
2019-04-14T20:53:29.300Z,94.60
2019-04-14T20:56:05.867Z,94.60
2019-04-14T20:58:35.673Z,94.90
2019-04-14T21:01:06.922Z,94.80
2019-04-14T21:03:48.030Z,94.90
2019-04-14T21:06:46.788Z,95.40
2019-04-14T21:09:36.477Z,95.10
2019-04-14T21:12:07.712Z,95.40
2019-04-14T21:15:01.989Z,95.50
2019-04-14T21:17:36.117Z,95.40
2019-04-14T21:20:19.957Z,95.60
2019-04-14T21:23:00.955Z,95.90
2019-04-14T21:25:41.783Z,96.00
2019-04-14T21:28:24.928Z,96.10
2019-04-14T21:31:08.249Z,95.90
2019-04-14T21:33:51.081Z,95.90
2019-04-14T21:36:28.365Z,95.80
2019-04-14T21:39:11.072Z,95.90
2019-04-14T21:41:48.810Z,96.20
2019-04-14T21:44:18.294Z,96.20
2019-04-14T21:46:47.742Z,96.00
2019-04-14T21:49:23.737Z,96.20
2019-04-14T21:52:13.811Z,96.60
2019-04-14T21:54:50.912Z,96.60
2019-04-14T21:57:40.323Z,96.60
2019-04-14T22:00:42.966Z,96.40
2019-04-14T22:03:19.840Z,96.30
2019-04-14T22:06:14.299Z,96.70
2019-04-14T22:08:58.320Z,96.60
2019-04-14T22:11:35.097Z,96.50
2019-04-14T22:14:04.698Z,96.80
2019-04-14T22:16:35.817Z,97.00
2019-04-14T22:19:12.336Z,97.00
2019-04-14T22:21:48.965Z,96.90
2019-04-14T22:24:18.483Z,97.00
2019-04-14T22:26:55.000Z,97.10
2019-04-14T22:29:24.624Z,97.00
2019-04-14T22:31:54.216Z,97.00
2019-04-14T22:34:29.834Z,97.30
2019-04-14T22:37:05.600Z,97.50
2019-04-14T22:39:35.123Z,97.80
2019-04-14T22:42:04.644Z,97.70
2019-04-14T22:44:40.470Z,97.60
2019-04-14T22:47:17.076Z,97.60
2019-04-14T22:49:52.924Z,97.70
2019-04-14T22:52:29.372Z,97.60
2019-04-14T22:55:04.910Z,97.90
2019-04-14T22:57:40.644Z,97.50
2019-04-14T23:00:16.172Z,97.50
2019-04-14T23:03:12.781Z,97.50
2019-04-14T23:06:05.936Z,97.50
2019-04-14T23:08:43.081Z,97.60
2019-04-14T23:11:36.792Z,97.80
2019-04-14T23:14:30.055Z,97.90
2019-04-14T23:17:17.013Z,97.80
2019-04-14T23:19:48.169Z,97.70
2019-04-14T23:22:37.322Z,98.00
2019-04-14T23:25:13.575Z,97.80
2019-04-14T23:27:49.923Z,97.90
2019-04-14T23:30:19.448Z,97.90
2019-04-14T23:32:55.474Z,97.70
2019-04-14T23:35:31.057Z,98.10
2019-04-14T23:38:00.645Z,98.10
2019-04-14T23:40:36.686Z,98.00
2019-04-14T23:43:12.586Z,98.00
2019-04-14T23:45:42.192Z,98.00
2019-04-14T23:48:18.554Z,97.90
2019-04-14T23:50:54.669Z,97.80
2019-04-14T23:53:24.189Z,98.00
2019-04-14T23:55:59.831Z,98.10
2019-04-14T23:58:42.313Z,98.10
